Airport View

Enter AWOS ICAO identifier for current METAR.

ex. KFNL

KLUD 031715Z AUTO 23005KT 10SM CLR 32/23 A3001 RMK AO2 T03210227

3 Jul 2020 17:37

Frequency: 118.225

Phone: 940-627-2365

Other Area AWOS: KXBP - KDTO - KAFW - K0F2

TAF AMD KAFW 031508Z 0315/0412 23007KT P6SM SCT160 SCT250 FM032000 18006KT P6SM SCT050 SCT150